Time;durP1;ratioP1;P1;durP2;ratioP2;P2;SDS_P1;SDS_P2;PMS_P1;PMS_P2;Temp;Humidity;BMP_temperature;BMP_pressure;BME280_temperature;BME280_humidity;BME280_pressure;Samples;Min_cycle;Max_cycle;Signal;HPM_P1;HPM_P2
2022/04/28 00:00:47;;;;;;;4.90;4.40;;;19.90;99.90;;;;;;5086938;28;20473;-76
2022/04/28 00:03:15;;;;;;;4.95;3.83;;;19.90;99.90;;;;;;5121707;27;20035;-77
2022/04/28 00:05:43;;;;;;;4.20;3.80;;;19.90;99.90;;;;;;5102092;28;20492;-78
2022/04/28 00:08:11;;;;;;;6.82;4.65;;;19.90;99.90;;;;;;5101829;27;20032;-75
2022/04/28 00:10:40;;;;;;;4.28;3.88;;;20.00;99.90;;;;;;5100737;28;20401;-74
2022/04/28 00:13:09;;;;;;;5.78;4.63;;;19.90;99.90;;;;;;5100958;28;20024;-75
2022/04/28 00:15:37;;;;;;;4.28;3.65;;;19.90;99.90;;;;;;5106597;28;20028;-73
2022/04/28 00:31:33;;;;;;;4.40;2.83;;;20.00;99.90;;;;;;5099549;28;20039;-75
2022/04/28 00:34:00;;;;;;;3.55;2.95;;;20.00;99.90;;;;;;5098412;28;20034;-75
2022/04/28 00:36:27;;;;;;;3.20;2.90;;;20.00;99.90;;;;;;5098622;28;20043;-75
2022/04/28 00:38:54;;;;;;;8.23;3.22;;;20.10;99.90;;;;;;5106060;28;20012;-75
2022/04/28 00:41:22;;;;;;;3.40;2.97;;;20.20;99.90;;;;;;5099913;27;20032;-76
2022/04/28 00:43:52;;;;;;;9.80;3.00;;;20.20;99.90;;;;;;5101303;28;20059;-74
2022/04/28 00:46:20;;;;;;;2.80;2.42;;;20.40;99.90;;;;;;5099942;28;20537;-75
2022/04/28 00:51:35;;;;;;;3.22;2.55;;;20.60;99.90;;;;;;5114565;27;20415;-75
2022/04/28 00:54:03;;;;;;;2.72;2.30;;;20.60;99.90;;;;;;5128661;27;20030;-73
2022/04/28 00:56:31;;;;;;;4.47;2.78;;;20.60;99.90;;;;;;5075686;27;20032;-74
2022/04/28 00:59:03;;;;;;;3.63;2.80;;;20.70;99.90;;;;;;5101703;28;20039;-75
2022/04/28 01:01:34;;;;;;;3.42;2.80;;;20.70;99.90;;;;;;5099579;27;20509;-75
2022/04/28 01:04:01;;;;;;;3.63;3.10;;;20.80;99.90;;;;;;5099346;28;20051;-73
2022/04/28 01:06:29;;;;;;;2.45;2.25;;;20.90;99.90;;;;;;5100469;27;22603;-76
2022/04/28 01:09:00;;;;;;;3.28;2.53;;;21.00;99.90;;;;;;5101001;28;20034;-76
2022/04/28 01:11:28;;;;;;;3.20;2.90;;;21.10;99.90;;;;;;5098729;28;20114;-75
2022/04/28 01:13:55;;;;;;;2.72;2.33;;;21.10;99.90;;;;;;5099577;28;20024;-76
2022/04/28 01:16:23;;;;;;;2.63;2.42;;;21.10;99.90;;;;;;5102156;27;20035;-76
2022/04/28 01:18:50;;;;;;;4.38;2.63;;;21.00;99.90;;;;;;5099099;28;20062;-75
2022/04/28 01:21:18;;;;;;;3.35;2.58;;;20.80;99.90;;;;;;5099032;28;20027;-76
2022/04/28 01:23:45;;;;;;;2.97;1.83;;;20.80;99.90;;;;;;5093400;28;20055;-76
2022/04/28 01:26:14;;;;;;;2.92;2.08;;;20.80;99.90;;;;;;5100199;28;20250;-75
2022/04/28 01:28:42;;;;;;;4.13;2.28;;;20.80;99.90;;;;;;5110491;28;20103;-75
2022/04/28 01:31:09;;;;;;;2.55;2.15;;;20.80;99.90;;;;;;5110265;28;20023;-76
2022/04/28 01:33:36;;;;;;;3.08;2.58;;;20.80;99.90;;;;;;5109795;28;20053;-73
2022/04/28 01:36:04;;;;;;;2.50;2.25;;;20.80;99.90;;;;;;5106660;27;20540;-75
2022/04/28 01:38:32;;;;;;;3.63;2.75;;;20.90;99.90;;;;;;5132224;27;20413;-76
2022/04/28 01:41:00;;;;;;;1.77;1.55;;;21.00;99.90;;;;;;5129147;27;20710;-74
2022/04/28 01:43:27;;;;;;;4.15;2.10;;;21.00;99.90;;;;;;5132543;27;20042;-74
2022/04/28 01:45:54;;;;;;;2.72;1.70;;;21.00;99.90;;;;;;5101073;27;20020;-75
2022/04/28 01:48:22;;;;;;;2.42;2.17;;;21.00;99.90;;;;;;5081200;28;20124;-74
2022/04/28 01:56:20;;;;;;;2.80;2.05;;;20.80;99.90;;;;;;5098505;28;20046;-76
2022/04/28 01:58:47;;;;;;;2.17;1.75;;;20.80;99.90;;;;;;5101831;27;20532;-76
2022/04/28 02:01:15;;;;;;;2.10;1.77;;;20.80;99.90;;;;;;5098270;28;20028;-76
2022/04/28 02:03:42;;;;;;;2.05;1.77;;;20.70;99.90;;;;;;5100464;28;20092;-76
2022/04/28 02:06:09;;;;;;;2.15;1.90;;;20.80;99.90;;;;;;5098836;28;20070;-76
2022/04/28 02:08:39;;;;;;;2.13;1.85;;;20.80;99.90;;;;;;5100755;28;20454;-75
2022/04/28 02:11:07;;;;;;;2.78;2.47;;;20.70;99.90;;;;;;5110837;27;20059;-75
2022/04/28 02:13:35;;;;;;;2.30;1.95;;;20.70;99.90;;;;;;5119347;27;20028;-75
2022/04/28 02:16:03;;;;;;;2.72;2.33;;;20.60;99.90;;;;;;5099882;28;20023;-75
2022/04/28 02:18:30;;;;;;;4.93;2.78;;;20.50;99.90;;;;;;5100301;28;20114;-76
2022/04/28 02:20:57;;;;;;;2.75;2.15;;;20.40;99.90;;;;;;5101297;28;20011;-76
2022/04/28 02:23:28;;;;;;;2.80;2.17;;;20.30;99.90;;;;;;5122346;27;20404;-77
2022/04/28 02:25:55;;;;;;;4.53;2.33;;;20.20;99.90;;;;;;5107518;28;20397;-78
2022/04/28 02:28:23;;;;;;;2.35;2.15;;;20.10;99.90;;;;;;5108305;28;20071;-78
2022/04/28 02:30:50;;;;;;;4.93;3.05;;;20.10;99.90;;;;;;5101144;28;20576;-75
2022/04/28 02:33:19;;;;;;;4.53;2.60;;;20.10;99.90;;;;;;5104573;28;20531;-75
2022/04/28 02:35:46;;;;;;;5.30;3.30;;;20.10;99.90;;;;;;5093443;28;20403;-77
2022/04/28 02:38:14;;;;;;;3.92;3.30;;;20.10;99.90;;;;;;5110151;28;20035;-77
2022/04/28 02:40:41;;;;;;;4.60;2.67;;;20.10;99.90;;;;;;5114635;28;20436;-77
2022/04/28 02:43:08;;;;;;;4.60;3.00;;;20.20;99.90;;;;;;5112425;27;20041;-75
2022/04/28 02:45:36;;;;;;;2.95;2.65;;;20.20;99.90;;;;;;5115470;28;20447;-77
2022/04/28 02:48:04;;;;;;;4.63;3.17;;;20.30;99.90;;;;;;5113261;28;20514;-78
2022/04/28 02:50:31;;;;;;;4.47;2.88;;;20.30;99.90;;;;;;5113155;28;20038;-78
2022/04/28 02:52:58;;;;;;;2.38;1.90;;;20.30;99.90;;;;;;5112436;27;20115;-73
2022/04/28 02:55:26;;;;;;;2.95;2.13;;;20.20;99.90;;;;;;5115278;28;20064;-75
2022/04/28 02:57:53;;;;;;;2.92;2.25;;;20.20;99.90;;;;;;5129633;27;20044;-76
2022/04/28 03:00:20;;;;;;;3.22;2.15;;;20.10;99.90;;;;;;5130286;27;20039;-76
2022/04/28 03:02:48;;;;;;;4.63;2.80;;;20.10;99.90;;;;;;5125429;27;20460;-77
2022/04/28 03:05:15;;;;;;;3.72;2.65;;;20.00;99.90;;;;;;5115014;28;20059;-76
2022/04/28 03:10:55;;;;;;;4.50;3.15;;;20.00;99.90;;;;;;5114007;28;20493;-76
2022/04/28 03:13:23;;;;;;;3.92;3.50;;;20.00;99.90;;;;;;5094460;28;20032;-76
2022/04/28 03:15:51;;;;;;;3.95;3.42;;;19.90;99.90;;;;;;5093871;28;20020;-76
2022/04/28 03:18:18;;;;;;;4.20;3.03;;;19.90;99.90;;;;;;5114374;27;20122;-76
2022/04/28 03:20:45;;;;;;;5.15;2.85;;;19.90;99.90;;;;;;5113228;28;20027;-75
2022/04/28 03:23:14;;;;;;;3.80;2.03;;;19.80;99.90;;;;;;5115602;27;20030;-72
2022/04/28 03:25:41;;;;;;;5.28;2.70;;;19.80;99.90;;;;;;5129120;27;20120;-74
2022/04/28 03:28:09;;;;;;;5.38;2.45;;;19.70;99.90;;;;;;5131325;27;20084;-76
2022/04/28 03:30:37;;;;;;;5.15;3.20;;;19.70;99.90;;;;;;5135526;27;20030;-75
2022/04/28 03:33:04;;;;;;;4.93;3.85;;;19.70;99.90;;;;;;5112302;27;20039;-74
2022/04/28 03:35:31;;;;;;;5.05;2.72;;;19.70;99.90;;;;;;5114099;28;20111;-75
2022/04/28 03:37:59;;;;;;;6.38;2.72;;;19.70;99.90;;;;;;5111126;28;20123;-75
2022/04/28 03:40:27;;;;;;;4.55;2.33;;;19.60;99.90;;;;;;5114668;28;20026;-75
2022/04/28 03:42:54;;;;;;;1.98;1.50;;;19.70;99.90;;;;;;5111051;27;20466;-75
2022/04/28 03:45:22;;;;;;;2.72;1.40;;;19.70;99.90;;;;;;5114240;28;20028;-76
2022/04/28 03:47:49;;;;;;;2.40;1.75;;;19.60;99.90;;;;;;5112210;28;20081;-75
2022/04/28 03:50:17;;;;;;;2.28;1.55;;;19.60;99.90;;;;;;5111419;28;20054;-75
2022/04/28 03:52:44;;;;;;;2.60;1.58;;;19.60;99.90;;;;;;5107651;27;20031;-74
2022/04/28 03:55:11;;;;;;;3.50;2.03;;;19.60;99.90;;;;;;5112113;27;20081;-74
2022/04/28 03:57:39;;;;;;;4.45;1.80;;;19.60;99.90;;;;;;5114320;27;20042;-74
2022/04/28 04:00:07;;;;;;;2.05;1.40;;;19.60;99.90;;;;;;5113604;28;20024;-75
2022/04/28 04:02:35;;;;;;;3.33;1.55;;;19.60;99.90;;;;;;5112340;28;20459;-75
2022/04/28 04:05:02;;;;;;;2.13;1.60;;;19.70;99.90;;;;;;5093594;28;20016;-74
2022/04/28 04:07:38;;;;;;;2.85;1.10;;;19.60;99.90;;;;;;5106793;28;20076;-75
2022/04/28 04:10:06;;;;;;;3.10;1.10;;;19.60;99.90;;;;;;5112028;28;20032;-75
2022/04/28 04:12:34;;;;;;;3.45;1.48;;;19.60;99.90;;;;;;5113327;28;20035;-75
2022/04/28 04:15:02;;;;;;;2.17;1.50;;;19.70;99.90;;;;;;5113563;28;20012;-75
2022/04/28 04:17:29;;;;;;;2.33;1.60;;;19.70;99.90;;;;;;5113384;28;20110;-75
2022/04/28 04:19:57;;;;;;;4.18;1.17;;;19.70;99.90;;;;;;5111060;28;20032;-74
2022/04/28 04:22:24;;;;;;;3.40;1.40;;;19.80;99.90;;;;;;5111899;28;20059;-74
2022/04/28 04:24:51;;;;;;;3.35;1.27;;;19.80;99.90;;;;;;5112674;28;20040;-75
2022/04/28 04:27:20;;;;;;;5.80;1.20;;;19.90;99.90;;;;;;5122840;27;20123;-74
2022/04/28 04:29:47;;;;;;;1.85;1.25;;;19.90;99.90;;;;;;5115316;27;20355;-74
2022/04/28 04:32:17;;;;;;;1.65;1.00;;;19.90;99.90;;;;;;5120782;27;20035;-74
2022/04/28 04:34:46;;;;;;;2.28;1.48;;;20.00;99.90;;;;;;5133670;27;20026;-74
2022/04/28 04:37:13;;;;;;;3.75;1.40;;;20.00;99.90;;;;;;5129954;27;20069;-75
2022/04/28 04:39:41;;;;;;;6.32;1.50;;;20.00;99.90;;;;;;5114399;27;20027;-74
2022/04/28 04:42:09;;;;;;;5.43;2.53;;;20.00;99.90;;;;;;5110321;28;20110;-76
2022/04/28 04:44:37;;;;;;;3.60;2.03;;;20.10;99.90;;;;;;5113445;28;20424;-75
2022/04/28 04:47:05;;;;;;;4.60;2.15;;;20.10;99.90;;;;;;5119470;27;20134;-75
2022/04/28 04:49:32;;;;;;;5.55;1.95;;;20.20;99.90;;;;;;5133551;27;20371;-75
2022/04/28 04:52:01;;;;;;;2.47;1.58;;;20.30;99.90;;;;;;5119067;27;20036;-74
2022/04/28 04:54:29;;;;;;;3.05;1.70;;;20.30;99.90;;;;;;5109698;28;20494;-75
2022/04/28 04:56:56;;;;;;;3.63;1.98;;;20.30;99.90;;;;;;5109770;28;20035;-75
2022/04/28 04:59:23;;;;;;;2.97;1.48;;;20.40;99.90;;;;;;5111251;28;20071;-75
2022/04/28 05:01:51;;;;;;;4.18;1.77;;;20.40;99.90;;;;;;5117880;27;20115;-76
2022/04/28 05:04:18;;;;;;;5.78;2.70;;;20.40;99.90;;;;;;5114842;27;20055;-74
2022/04/28 05:06:46;;;;;;;2.30;1.10;;;20.40;99.90;;;;;;5116615;27;20076;-75
2022/04/28 05:09:13;;;;;;;3.90;1.85;;;20.50;99.90;;;;;;5128841;27;20024;-74
2022/04/28 05:11:40;;;;;;;3.13;1.80;;;20.50;99.90;;;;;;5108876;28;20100;-74
2022/04/28 05:14:08;;;;;;;5.65;2.55;;;20.50;99.90;;;;;;5091831;28;20028;-75
2022/04/28 05:16:35;;;;;;;5.20;3.17;;;20.50;99.90;;;;;;5095618;28;20042;-74
2022/04/28 05:19:02;;;;;;;2.40;1.95;;;20.60;99.90;;;;;;5111667;28;20062;-75
2022/04/28 05:21:30;;;;;;;2.72;1.83;;;20.60;99.90;;;;;;5096950;28;20016;-75
2022/04/28 05:23:57;;;;;;;3.70;1.60;;;20.60;99.90;;;;;;5112242;28;20422;-75
2022/04/28 05:26:25;;;;;;;1.35;0.80;;;20.50;99.90;;;;;;5113754;27;20427;-75
2022/04/28 05:28:52;;;;;;;1.30;0.80;;;20.50;99.90;;;;;;5132914;27;20012;-75
2022/04/28 05:31:19;;;;;;;4.60;1.25;;;20.50;99.90;;;;;;5125057;27;20110;-74
2022/04/28 05:33:47;;;;;;;1.48;1.27;;;20.50;99.90;;;;;;5108802;28;20465;-75
2022/04/28 05:36:16;;;;;;;2.00;1.17;;;20.50;99.90;;;;;;5110461;28;20032;-76
2022/04/28 05:38:44;;;;;;;0.82;0.65;;;20.50;99.90;;;;;;5110629;28;20027;-74
2022/04/28 05:41:12;;;;;;;2.38;1.15;;;20.50;99.90;;;;;;5109052;28;20035;-75
2022/04/28 05:46:25;;;;;;;1.87;1.00;;;20.50;99.90;;;;;;5109435;28;20065;-76
2022/04/28 05:48:53;;;;;;;3.67;1.10;;;20.60;99.90;;;;;;5111667;28;20115;-75
2022/04/28 05:51:20;;;;;;;2.25;1.15;;;20.50;99.90;;;;;;5110034;28;20018;-74
2022/04/28 05:53:48;;;;;;;4.43;1.17;;;20.50;99.90;;;;;;5109222;28;20556;-75
2022/04/28 05:56:15;;;;;;;2.97;1.00;;;20.50;99.90;;;;;;5109795;28;20107;-74
2022/04/28 05:58:42;;;;;;;2.67;1.30;;;20.40;99.90;;;;;;5109216;28;20088;-74
2022/04/28 06:01:10;;;;;;;2.80;1.13;;;20.40;99.90;;;;;;5108966;28;20023;-76
2022/04/28 06:03:37;;;;;;;5.47;1.73;;;20.50;99.90;;;;;;5107554;28;20035;-74
2022/04/28 06:06:04;;;;;;;2.97;0.85;;;20.50;99.90;;;;;;5107479;28;20058;-76
2022/04/28 06:08:32;;;;;;;2.35;1.27;;;20.50;99.90;;;;;;5111442;27;20044;-74
2022/04/28 06:11:01;;;;;;;1.52;1.08;;;20.50;99.90;;;;;;5109939;28;20434;-75
2022/04/28 06:13:30;;;;;;;2.10;1.08;;;20.50;99.90;;;;;;5118164;27;20035;-76
2022/04/28 06:16:01;;;;;;;3.65;1.40;;;20.50;99.90;;;;;;5106779;28;20027;-76
2022/04/28 06:18:28;;;;;;;2.22;0.90;;;20.50;99.90;;;;;;5111237;28;20035;-75
2022/04/28 06:20:56;;;;;;;5.57;1.33;;;20.50;99.90;;;;;;5109332;28;20020;-75
2022/04/28 06:23:23;;;;;;;2.47;1.40;;;20.50;99.90;;;;;;5099757;28;20458;-76
2022/04/28 06:25:50;;;;;;;2.35;1.48;;;20.50;99.90;;;;;;5107886;27;20023;-74
2022/04/28 06:28:18;;;;;;;1.75;1.38;;;20.50;99.90;;;;;;5108065;28;20474;-74
2022/04/28 06:30:45;;;;;;;2.50;1.63;;;20.40;99.90;;;;;;5110913;28;20024;-75
2022/04/28 06:33:12;;;;;;;1.95;1.60;;;20.40;99.90;;;;;;5129295;28;20035;-74
2022/04/28 06:35:40;;;;;;;2.63;1.70;;;20.40;99.90;;;;;;5124164;28;20103;-74
2022/04/28 06:38:07;;;;;;;3.95;1.52;;;20.40;99.90;;;;;;5106348;28;20043;-74
2022/04/28 06:40:34;;;;;;;2.63;1.92;;;20.40;99.90;;;;;;5110840;28;20049;-75
2022/04/28 06:43:02;;;;;;;4.30;1.73;;;20.40;99.90;;;;;;5108119;28;20046;-77
2022/04/28 06:45:29;;;;;;;2.40;1.60;;;20.30;99.90;;;;;;5110399;28;20099;-75
2022/04/28 06:47:57;;;;;;;2.85;1.67;;;20.30;99.90;;;;;;5105581;28;20493;-75
2022/04/28 06:50:26;;;;;;;2.50;2.00;;;20.30;99.90;;;;;;5097640;28;20040;-75
2022/04/28 06:52:53;;;;;;;4.18;2.15;;;20.30;99.90;;;;;;5112608;28;20423;-75
2022/04/28 06:55:20;;;;;;;3.88;2.08;;;20.30;99.90;;;;;;5110820;28;20057;-76
2022/04/28 06:57:48;;;;;;;3.70;1.77;;;20.30;99.90;;;;;;5109184;28;20507;-75
2022/04/28 07:00:15;;;;;;;3.45;1.75;;;20.30;99.90;;;;;;5108005;28;20031;-74
2022/04/28 07:02:43;;;;;;;2.95;1.30;;;20.30;99.90;;;;;;5105178;28;20023;-75
2022/04/28 07:05:10;;;;;;;3.45;1.10;;;20.20;99.90;;;;;;5090562;28;20062;-74
2022/04/28 07:07:38;;;;;;;3.55;1.50;;;20.20;99.90;;;;;;5125198;28;20027;-73
2022/04/28 07:10:06;;;;;;;2.70;1.15;;;20.20;99.90;;;;;;5112987;28;20031;-73
2022/04/28 07:12:33;;;;;;;3.42;1.10;;;20.10;99.90;;;;;;5116660;28;20031;-74
2022/04/28 07:15:00;;;;;;;2.83;1.20;;;20.10;99.90;;;;;;5107603;28;20401;-74
2022/04/28 07:17:28;;;;;;;1.40;0.95;;;20.00;99.90;;;;;;5101930;28;20043;-74
2022/04/28 07:19:55;;;;;;;1.73;1.23;;;20.00;99.90;;;;;;5109678;28;20104;-74
2022/04/28 07:22:22;;;;;;;3.05;1.48;;;20.00;99.90;;;;;;5120979;28;20465;-76
2022/04/28 07:24:49;;;;;;;1.83;1.52;;;20.00;99.90;;;;;;5134334;27;20030;-74
2022/04/28 07:27:17;;;;;;;1.70;0.95;;;19.90;99.90;;;;;;5121098;27;20578;-74
2022/04/28 07:29:44;;;;;;;1.65;0.85;;;19.90;99.90;;;;;;5113146;28;20027;-74
2022/04/28 07:32:11;;;;;;;1.55;0.90;;;19.90;99.90;;;;;;5115451;27;20157;-75
2022/04/28 07:34:39;;;;;;;1.33;1.02;;;19.80;99.90;;;;;;5112958;27;20110;-75
2022/04/28 07:37:06;;;;;;;1.80;1.00;;;19.80;99.90;;;;;;5097577;27;20163;-75
2022/04/28 07:39:34;;;;;;;2.00;0.98;;;19.80;99.90;;;;;;5109590;27;20030;-75
2022/04/28 07:42:01;;;;;;;2.90;1.10;;;19.80;99.90;;;;;;5113368;27;20036;-77
2022/04/28 07:44:28;;;;;;;3.55;1.73;;;19.80;99.90;;;;;;5111475;27;20036;-75
2022/04/28 07:46:56;;;;;;;1.90;1.25;;;19.70;99.90;;;;;;5109490;28;20102;-75
2022/04/28 07:49:24;;;;;;;1.95;1.33;;;19.70;99.90;;;;;;5112462;28;20035;-75
2022/04/28 07:51:51;;;;;;;3.63;2.20;;;19.70;99.90;;;;;;5107998;28;20030;-77
2022/04/28 07:54:19;;;;;;;2.65;1.90;;;19.60;99.90;;;;;;5112245;28;20039;-76
2022/04/28 07:56:46;;;;;;;5.60;2.83;;;19.60;99.90;;;;;;5105814;28;20495;-78
2022/04/28 07:59:15;;;;;;;3.67;2.45;;;19.60;99.90;;;;;;5113904;28;20038;-75
2022/04/28 08:01:42;;;;;;;4.03;2.63;;;19.60;99.90;;;;;;5102397;27;20023;-75
2022/04/28 08:04:09;;;;;;;4.22;2.63;;;19.50;99.90;;;;;;5107695;28;20055;-74
2022/04/28 08:06:37;;;;;;;4.00;2.17;;;19.50;99.90;;;;;;5111344;28;20073;-73
2022/04/28 08:09:04;;;;;;;3.83;2.85;;;19.50;99.90;;;;;;5111869;28;20027;-74
2022/04/28 08:11:31;;;;;;;2.80;1.58;;;19.50;99.90;;;;;;5111615;27;20114;-73
2022/04/28 08:13:59;;;;;;;1.95;1.10;;;19.40;99.90;;;;;;5106985;28;20485;-73
2022/04/28 08:16:26;;;;;;;2.88;1.63;;;19.40;99.90;;;;;;5108766;28;20035;-73
2022/04/28 08:18:54;;;;;;;1.50;1.10;;;19.40;99.90;;;;;;5112569;28;20386;-73
2022/04/28 08:21:22;;;;;;;3.67;1.20;;;19.30;99.90;;;;;;5110409;27;20015;-72
2022/04/28 08:23:49;;;;;;;1.83;1.10;;;19.20;99.90;;;;;;5103684;27;20063;-74
2022/04/28 08:26:16;;;;;;;2.15;1.35;;;19.20;99.90;;;;;;5107875;27;20047;-73
2022/04/28 08:28:44;;;;;;;3.80;1.92;;;19.20;99.90;;;;;;5104045;27;20465;-73
2022/04/28 08:31:11;;;;;;;3.10;1.20;;;19.30;99.90;;;;;;5105964;28;20155;-74
2022/04/28 08:33:38;;;;;;;1.70;0.88;;;19.20;99.90;;;;;;5091913;28;20040;-73
2022/04/28 08:36:06;;;;;;;1.67;0.98;;;19.30;99.90;;;;;;5107155;28;21017;-73
2022/04/28 08:38:33;;;;;;;2.13;1.02;;;19.30;99.90;;;;;;5110153;28;20444;-74
2022/04/28 08:41:03;;;;;;;3.50;1.17;;;19.30;99.90;;;;;;5105604;28;20076;-74
2022/04/28 08:43:32;;;;;;;1.70;1.20;;;19.20;99.90;;;;;;5096416;28;20114;-74
2022/04/28 08:48:55;;;;;;;2.25;1.20;;;19.20;99.90;;;;;;5107948;28;20074;-74
2022/04/28 08:51:26;;;;;;;2.10;1.02;;;19.20;99.90;;;;;;5112203;27;20023;-73
2022/04/28 08:53:55;;;;;;;3.80;1.10;;;19.20;99.90;;;;;;5130742;27;20389;-73
2022/04/28 08:56:24;;;;;;;1.85;0.85;;;19.20;99.90;;;;;;5108247;27;20030;-74
2022/04/28 08:58:52;;;;;;;4.82;1.48;;;19.10;99.90;;;;;;5116465;27;20032;-73
2022/04/28 09:01:27;;;;;;;1.33;0.90;;;19.20;99.90;;;;;;5093313;28;20054;-74
2022/04/28 09:03:59;;;;;;;1.20;0.93;;;19.20;99.90;;;;;;5081519;28;20024;-73
2022/04/28 09:06:29;;;;;;;2.03;1.15;;;19.10;99.90;;;;;;5083233;28;20034;-73
2022/04/28 09:08:58;;;;;;;0.80;0.68;;;19.10;99.90;;;;;;5091996;28;20028;-73
2022/04/28 09:11:29;;;;;;;2.67;0.98;;;19.10;99.90;;;;;;5094062;28;20019;-75
2022/04/28 09:14:09;;;;;;;2.50;1.13;;;19.10;99.90;;;;;;5110200;28;20544;-73
2022/04/28 09:16:45;;;;;;;3.97;1.10;;;19.20;99.90;;;;;;5090370;28;20036;-74
2022/04/28 09:19:14;;;;;;;1.45;0.90;;;19.20;99.90;;;;;;5062885;28;20451;-74
2022/04/28 09:21:42;;;;;;;2.13;0.80;;;19.10;99.90;;;;;;5083721;28;20035;-72
2022/04/28 09:24:11;;;;;;;2.47;1.05;;;19.10;99.90;;;;;;5111463;28;20051;-73
2022/04/28 09:26:40;;;;;;;2.08;0.90;;;19.10;99.90;;;;;;5109618;28;20032;-74
2022/04/28 09:29:14;;;;;;;2.20;0.77;;;19.10;99.90;;;;;;5092928;28;20103;-73
2022/04/28 09:31:45;;;;;;;6.50;1.13;;;19.10;99.90;;;;;;5085330;28;20474;-73
2022/04/28 09:34:18;;;;;;;3.05;1.15;;;19.10;99.90;;;;;;5083864;28;20024;-75
2022/04/28 09:36:46;;;;;;;2.58;1.10;;;19.10;99.90;;;;;;5076392;28;20036;-73
2022/04/28 09:44:56;;;;;;;2.08;1.27;;;19.10;99.90;;;;;;5071464;28;20035;-74
2022/04/28 09:47:26;;;;;;;4.03;0.90;;;19.20;99.90;;;;;;5074924;28;20455;-75
2022/04/28 09:49:55;;;;;;;2.45;1.13;;;19.10;99.90;;;;;;5087573;28;20109;-74
2022/04/28 09:52:30;;;;;;;3.53;1.35;;;19.10;99.90;;;;;;5075857;28;20039;-74
2022/04/28 09:55:00;;;;;;;2.63;1.45;;;19.10;99.90;;;;;;5070980;28;20035;-74
2022/04/28 09:57:28;;;;;;;2.28;1.10;;;19.00;99.90;;;;;;5080117;28;20072;-74
2022/04/28 09:59:57;;;;;;;3.67;1.35;;;19.00;99.90;;;;;;5091035;28;20026;-74
2022/04/28 10:02:27;;;;;;;3.53;1.15;;;19.00;99.90;;;;;;5081894;28;20134;-75
2022/04/28 10:04:55;;;;;;;2.58;0.90;;;18.90;99.90;;;;;;5078309;28;20032;-73
2022/04/28 10:07:23;;;;;;;1.65;1.15;;;18.90;99.90;;;;;;5093642;28;20470;-73
2022/04/28 10:09:52;;;;;;;1.20;1.00;;;18.90;99.90;;;;;;5090916;28;20036;-73
2022/04/28 10:12:22;;;;;;;2.30;0.98;;;18.80;99.90;;;;;;5080909;28;20524;-73
2022/04/28 10:14:50;;;;;;;1.92;1.05;;;18.80;99.90;;;;;;5079699;28;20024;-74
2022/04/28 10:17:33;;;;;;;3.63;1.23;;;18.80;99.90;;;;;;5086604;28;20040;-73
2022/04/28 10:20:11;;;;;;;1.73;1.00;;;18.80;99.90;;;;;;5070836;28;20021;-72
2022/04/28 10:22:41;;;;;;;1.33;0.90;;;18.70;99.90;;;;;;5078358;28;20518;-73
2022/04/28 10:33:46;;;;;;;2.85;1.17;;;18.50;99.90;;;;;;5097947;28;20520;-75
2022/04/28 10:36:21;;;;;;;2.63;1.30;;;18.40;99.90;;;;;;5089598;28;20035;-74
2022/04/28 10:39:09;;;;;;;4.72;1.27;;;18.30;99.90;;;;;;5089647;28;20032;-73
2022/04/28 10:41:36;;;;;;;2.80;1.38;;;18.30;99.90;;;;;;5078427;28;20032;-74
2022/04/28 10:44:16;;;;;;;2.03;1.13;;;18.30;99.90;;;;;;5087514;28;20028;-74
2022/04/28 10:47:00;;;;;;;2.15;1.30;;;18.20;99.90;;;;;;5089769;28;20107;-73
2022/04/28 10:49:43;;;;;;;2.65;1.52;;;18.20;99.90;;;;;;5090488;28;20032;-74
2022/04/28 10:52:25;;;;;;;1.77;1.20;;;18.20;99.90;;;;;;5084770;28;20027;-74
2022/04/28 10:54:55;;;;;;;1.58;1.33;;;18.10;99.90;;;;;;5083913;28;20036;-74
2022/04/28 10:57:36;;;;;;;1.63;1.30;;;18.10;99.90;;;;;;5087915;28;20433;-75
2022/04/28 11:00:05;;;;;;;2.45;1.67;;;18.10;99.90;;;;;;5093414;28;20063;-75
2022/04/28 11:02:37;;;;;;;3.63;2.28;;;18.10;99.90;;;;;;5087221;28;20032;-75
2022/04/28 11:05:28;;;;;;;3.00;2.15;;;18.20;99.90;;;;;;5094532;28;20036;-74
2022/04/28 11:08:00;;;;;;;3.70;1.75;;;18.20;99.90;;;;;;5093427;28;20080;-76
2022/04/28 11:10:28;;;;;;;3.53;1.60;;;18.10;99.90;;;;;;5092987;28;20437;-74
2022/04/28 11:12:55;;;;;;;7.13;1.92;;;18.10;99.90;;;;;;5089413;28;20520;-73
2022/04/28 11:15:25;;;;;;;2.50;1.75;;;18.10;99.90;;;;;;5093786;28;20040;-74
2022/04/28 11:17:52;;;;;;;2.67;1.30;;;18.10;99.90;;;;;;5093188;28;20374;-74
2022/04/28 11:20:21;;;;;;;5.03;1.95;;;18.10;99.90;;;;;;5089381;28;20534;-73
2022/04/28 11:22:52;;;;;;;2.63;1.90;;;18.10;99.90;;;;;;5089643;28;20047;-74
2022/04/28 11:25:22;;;;;;;3.13;2.00;;;18.20;99.90;;;;;;5077320;28;20036;-73
2022/04/28 11:27:51;;;;;;;3.35;2.10;;;18.30;99.90;;;;;;5077269;28;20347;-73
2022/04/28 11:30:28;;;;;;;3.00;2.30;;;18.50;99.90;;;;;;5076499;28;20028;-74
2022/04/28 11:32:58;;;;;;;7.15;2.08;;;18.50;99.90;;;;;;5074375;28;20123;-74
2022/04/28 11:35:38;;;;;;;3.70;2.20;;;18.50;99.90;;;;;;5072844;28;20453;-74
2022/04/28 11:38:08;;;;;;;4.88;2.00;;;18.50;99.90;;;;;;5085820;28;20088;-76
2022/04/28 11:40:37;;;;;;;3.28;2.15;;;18.50;99.90;;;;;;5079600;28;20020;-72
2022/04/28 11:43:06;;;;;;;4.82;2.30;;;18.50;99.90;;;;;;5076435;28;20479;-76
2022/04/28 11:45:36;;;;;;;3.45;2.70;;;18.50;99.90;;;;;;5074120;28;20024;-75
2022/04/28 11:48:05;;;;;;;3.10;1.98;;;18.40;99.90;;;;;;5081454;28;20614;-75
2022/04/28 11:50:34;;;;;;;3.25;1.90;;;18.40;99.90;;;;;;5075243;28;20036;-75
2022/04/28 11:53:04;;;;;;;4.20;2.42;;;18.30;99.90;;;;;;5072941;28;20051;-74
2022/04/28 11:55:35;;;;;;;3.60;2.65;;;18.30;99.90;;;;;;5077088;28;20513;-75
2022/04/28 11:58:03;;;;;;;4.43;3.50;;;18.30;99.90;;;;;;5075022;28;20043;-75
2022/04/28 12:00:37;;;;;;;3.33;2.83;;;18.30;99.90;;;;;;5074916;28;20112;-75
2022/04/28 12:03:05;;;;;;;3.28;2.08;;;18.20;99.90;;;;;;5074257;28;20024;-74
2022/04/28 12:05:34;;;;;;;4.22;2.67;;;18.10;99.90;;;;;;5074297;28;20062;-74
2022/04/28 12:08:02;;;;;;;3.85;3.03;;;18.10;99.90;;;;;;5071414;28;20028;-74
2022/04/28 12:16:14;;;;;;;3.22;1.88;;;18.00;99.90;;;;;;5074741;28;20084;-73
2022/04/28 12:21:42;;;;;;;3.65;2.38;;;17.80;99.90;;;;;;5077714;28;20109;-74
2022/04/28 12:24:13;;;;;;;7.10;2.75;;;17.70;99.90;;;;;;5074564;28;20037;-75
2022/04/28 12:26:45;;;;;;;4.00;3.20;;;17.70;99.90;;;;;;5076040;28;20118;-74
2022/04/28 12:29:14;;;;;;;4.80;2.20;;;17.80;99.90;;;;;;5075249;28;20550;-75
2022/04/28 12:31:43;;;;;;;3.70;2.33;;;17.70;99.90;;;;;;5078184;28;20031;-75
2022/04/28 12:34:23;;;;;;;5.72;2.63;;;17.80;99.90;;;;;;5073748;28;20024;-75
2022/04/28 12:36:58;;;;;;;3.88;2.92;;;17.80;99.90;;;;;;5076269;28;20115;-74
2022/04/28 12:39:29;;;;;;;5.27;3.20;;;17.80;99.90;;;;;;5075592;28;20028;-74
2022/04/28 12:41:56;;;;;;;4.78;2.42;;;17.80;99.90;;;;;;5073972;28;20284;-75
2022/04/28 12:44:24;;;;;;;4.45;2.42;;;17.80;99.90;;;;;;5060701;28;20150;-75
2022/04/28 12:46:55;;;;;;;4.00;2.25;;;17.80;99.90;;;;;;5071330;28;20023;-75
2022/04/28 12:49:23;;;;;;;5.53;3.08;;;17.80;99.90;;;;;;5075410;28;20040;-75
2022/04/28 12:51:56;;;;;;;5.60;2.40;;;17.70;99.90;;;;;;5074564;28;20112;-74
2022/04/28 12:54:37;;;;;;;6.95;2.90;;;17.60;99.90;;;;;;5073495;28;20083;-75
2022/04/28 12:57:07;;;;;;;4.00;2.92;;;17.60;99.90;;;;;;5074881;28;20473;-74
2022/04/28 12:59:38;;;;;;;3.22;2.80;;;17.60;99.90;;;;;;5074957;28;20043;-75
2022/04/28 13:02:06;;;;;;;3.40;2.65;;;17.60;99.90;;;;;;5072692;28;20028;-73
2022/04/28 13:04:39;;;;;;;4.63;3.30;;;17.60;99.90;;;;;;5074018;28;20040;-73
2022/04/28 13:07:09;;;;;;;5.82;4.07;;;17.50;99.90;;;;;;5075122;28;20039;-74
2022/04/28 13:09:37;;;;;;;9.65;5.22;;;17.50;99.90;;;;;;5072772;28;20031;-74
2022/04/28 13:12:05;;;;;;;8.52;4.68;;;17.60;99.90;;;;;;5073585;28;20028;-74
2022/04/28 13:14:32;;;;;;;7.63;5.28;;;17.60;99.90;;;;;;5071667;28;20431;-74
2022/04/28 13:16:59;;;;;;;7.60;4.85;;;17.70;99.90;;;;;;5070249;28;20123;-74
2022/04/28 13:19:27;;;;;;;9.13;4.57;;;17.60;99.90;;;;;;5089950;28;20023;-74
2022/04/28 13:21:54;;;;;;;6.88;4.95;;;17.60;99.90;;;;;;5101763;28;20024;-75
2022/04/28 13:24:22;;;;;;;7.85;4.47;;;17.50;99.90;;;;;;5089977;28;20032;-74
2022/04/28 13:26:49;;;;;;;4.47;2.78;;;17.50;99.90;;;;;;5085646;28;20016;-74
2022/04/28 13:29:16;;;;;;;6.30;3.55;;;17.40;99.90;;;;;;5087488;28;20462;-74
2022/04/28 13:31:44;;;;;;;5.95;2.80;;;17.40;99.90;;;;;;5087344;28;20051;-74
2022/04/28 13:34:11;;;;;;;4.13;3.17;;;17.30;99.90;;;;;;5091095;28;20032;-74
2022/04/28 13:36:40;;;;;;;4.50;2.67;;;17.30;99.90;;;;;;5086657;28;20024;-74
2022/04/28 13:39:07;;;;;;;4.13;2.90;;;17.20;99.90;;;;;;5070385;28;20040;-74
2022/04/28 13:41:35;;;;;;;5.20;2.67;;;17.20;99.90;;;;;;5073332;28;20024;-74
2022/04/28 13:44:02;;;;;;;3.00;2.70;;;17.10;99.90;;;;;;5069177;28;20051;-75
2022/04/28 13:46:30;;;;;;;4.47;2.70;;;17.00;99.90;;;;;;5073519;28;20131;-75
2022/04/28 13:48:58;;;;;;;3.20;2.50;;;17.10;99.90;;;;;;5051561;28;20615;-75